createdAt,value
2023-03-22T00:02:16.465Z,77.56
2023-03-22T00:04:44.487Z,77.38
2023-03-22T00:07:12.747Z,77.49
2023-03-22T00:09:41.069Z,77.50
2023-03-22T00:12:09.139Z,77.33
2023-03-22T00:14:37.396Z,77.42
2023-03-22T00:17:05.527Z,77.51
2023-03-22T00:19:34.114Z,77.72
2023-03-22T00:22:04.014Z,77.39
2023-03-22T00:24:32.181Z,77.50
2023-03-22T00:27:00.961Z,77.59
2023-03-22T00:29:29.177Z,77.80
2023-03-22T00:31:57.530Z,77.80
2023-03-22T00:34:27.162Z,77.81
2023-03-22T00:36:56.436Z,77.72
2023-03-22T00:39:24.627Z,77.72
2023-03-22T00:41:52.640Z,77.67
2023-03-22T00:44:21.064Z,77.69
2023-03-22T00:46:49.268Z,77.94
2023-03-22T00:49:17.355Z,77.84
2023-03-22T00:51:45.404Z,77.66
2023-03-22T00:54:13.781Z,77.69
2023-03-22T00:56:45.610Z,77.88
2023-03-22T00:59:15.059Z,78.10
2023-03-22T01:01:43.970Z,78.09
2023-03-22T01:04:18.311Z,78.08
2023-03-22T01:06:47.319Z,78.02
2023-03-22T01:09:15.558Z,78.03
2023-03-22T01:11:44.008Z,78.08
2023-03-22T01:14:13.977Z,77.97
2023-03-22T01:16:42.158Z,78.14
2023-03-22T01:19:10.684Z,78.25
2023-03-22T01:21:39.270Z,78.31
2023-03-22T01:24:07.362Z,78.31
2023-03-22T01:26:36.018Z,78.39
2023-03-22T01:29:04.028Z,78.32
2023-03-22T01:31:32.041Z,78.30
2023-03-22T01:34:00.174Z,78.30
2023-03-22T01:36:28.690Z,78.14
2023-03-22T01:38:57.167Z,78.31
2023-03-22T01:41:25.704Z,78.33
2023-03-22T01:44:12.817Z,78.32
2023-03-22T01:46:42.873Z,78.34
2023-03-22T01:49:19.664Z,78.53
2023-03-22T01:51:51.159Z,78.58
2023-03-22T01:54:44.793Z,78.58
2023-03-22T01:57:39.660Z,78.68
2023-03-22T02:00:15.776Z,78.64
2023-03-22T02:03:07.533Z,78.60
2023-03-22T02:05:44.081Z,78.61
2023-03-22T02:08:15.279Z,78.57
2023-03-22T02:11:03.412Z,78.74
2023-03-22T02:13:48.853Z,78.87
2023-03-22T02:17:10.886Z,78.98
2023-03-22T02:20:11.780Z,78.87
2023-03-22T02:23:06.017Z,78.72
2023-03-22T02:25:34.106Z,79.05
2023-03-22T02:28:33.688Z,78.99
2023-03-22T02:31:24.675Z,79.03
2023-03-22T02:33:52.901Z,79.18
2023-03-22T02:36:53.974Z,79.16
2023-03-22T02:39:29.864Z,79.24
2023-03-22T02:42:10.390Z,79.20
2023-03-22T02:44:43.012Z,79.27
2023-03-22T02:47:22.539Z,79.19
2023-03-22T02:49:58.803Z,79.16
2023-03-22T02:52:36.664Z,79.20
2023-03-22T02:55:20.697Z,79.36
2023-03-22T02:58:31.154Z,79.20
2023-03-22T03:01:07.445Z,79.30
2023-03-22T03:03:38.016Z,79.16
2023-03-22T03:06:10.991Z,79.35
2023-03-22T03:08:40.396Z,79.40
2023-03-22T03:11:09.188Z,79.64
2023-03-22T03:13:37.423Z,79.59
2023-03-22T03:16:08.181Z,79.63
2023-03-22T03:18:49.101Z,79.79
2023-03-22T03:21:30.213Z,80.01
2023-03-22T03:24:15.573Z,80.70
2023-03-22T03:26:59.462Z,81.55
2023-03-22T03:29:54.578Z,81.61
2023-03-22T03:32:31.820Z,81.46
2023-03-22T03:35:07.225Z,81.30
2023-03-22T03:37:45.108Z,81.19
2023-03-22T03:40:18.500Z,81.71
2023-03-22T03:42:52.980Z,81.76
2023-03-22T03:45:22.270Z,81.77
2023-03-22T03:47:57.288Z,81.67
2023-03-22T03:50:27.026Z,81.60
2023-03-22T03:52:56.115Z,81.62
2023-03-22T03:55:26.833Z,81.64
2023-03-22T03:57:54.905Z,81.35
2023-03-22T04:00:23.183Z,81.38
2023-03-22T04:03:30.799Z,81.22
2023-03-22T04:06:01.521Z,81.11
2023-03-22T04:08:30.191Z,81.22
2023-03-22T04:10:58.786Z,81.12
2023-03-22T04:13:26.748Z,81.06
2023-03-22T04:15:57.555Z,80.95
2023-03-22T04:18:29.950Z,80.90
2023-03-22T04:20:58.488Z,80.82
2023-03-22T04:23:27.765Z,80.93
2023-03-22T04:25:59.824Z,80.75
2023-03-22T04:28:38.191Z,80.93
2023-03-22T04:31:07.181Z,80.86
2023-03-22T04:34:05.644Z,81.01
2023-03-22T04:36:50.014Z,81.48
2023-03-22T04:39:38.786Z,81.29
2023-03-22T04:42:32.927Z,81.42
2023-03-22T04:45:21.480Z,81.45
2023-03-22T04:47:55.038Z,81.58
2023-03-22T04:50:23.681Z,81.40
2023-03-22T04:52:54.433Z,81.47
2023-03-22T04:55:22.609Z,81.62
2023-03-22T04:57:51.286Z,81.75
2023-03-22T05:00:19.741Z,82.15
2023-03-22T05:02:48.720Z,82.12
2023-03-22T05:05:27.683Z,81.93
2023-03-22T05:07:56.573Z,82.02
2023-03-22T05:10:25.305Z,82.24
2023-03-22T05:12:54.778Z,82.13
2023-03-22T05:15:25.663Z,82.43
2023-03-22T05:17:55.856Z,83.24
2023-03-22T05:20:25.031Z,83.76
2023-03-22T05:23:10.383Z,84.31
2023-03-22T05:25:39.686Z,84.81
2023-03-22T05:28:08.793Z,85.08
2023-03-22T05:30:46.678Z,85.61
2023-03-22T05:33:41.789Z,86.64
2023-03-22T05:36:14.000Z,86.74
2023-03-22T05:38:59.457Z,86.92
2023-03-22T05:41:27.661Z,86.99
2023-03-22T05:43:56.053Z,87.34
2023-03-22T05:46:24.116Z,87.78
2023-03-22T05:49:24.946Z,87.67
2023-03-22T05:51:52.900Z,87.78
2023-03-22T05:54:22.014Z,87.90
2023-03-22T05:56:54.070Z,88.12
2023-03-22T05:59:23.678Z,88.12
2023-03-22T06:01:52.183Z,87.92
2023-03-22T06:04:22.973Z,87.60
2023-03-22T06:07:17.146Z,87.11
2023-03-22T06:10:01.892Z,86.61
2023-03-22T06:12:31.568Z,86.07
2023-03-22T06:15:16.531Z,85.81
2023-03-22T06:18:00.740Z,85.41
2023-03-22T06:20:31.372Z,85.04
2023-03-22T06:23:02.801Z,84.73
2023-03-22T06:25:30.812Z,84.54
2023-03-22T06:27:59.240Z,84.18
2023-03-22T06:30:27.462Z,84.00
2023-03-22T06:33:07.180Z,83.71
2023-03-22T06:35:37.802Z,83.52
2023-03-22T06:38:05.912Z,83.39
2023-03-22T06:40:36.886Z,83.21
2023-03-22T06:43:07.235Z,83.06
2023-03-22T06:45:36.649Z,82.83
2023-03-22T06:48:05.602Z,82.62
2023-03-22T06:50:54.101Z,82.35
2023-03-22T06:53:33.843Z,82.17
2023-03-22T06:56:03.678Z,81.90
2023-03-22T06:58:35.001Z,81.73
2023-03-22T07:01:03.082Z,81.47
2023-03-22T07:03:32.503Z,81.18
2023-03-22T07:06:12.290Z,80.93
2023-03-22T07:08:43.111Z,80.87
2023-03-22T07:11:11.492Z,81.04
2023-03-22T07:13:39.626Z,80.50
2023-03-22T07:16:11.598Z,80.17
2023-03-22T07:18:43.645Z,79.29
2023-03-22T07:21:12.164Z,79.47
2023-03-22T07:23:41.439Z,79.01
2023-03-22T07:26:13.595Z,79.27
2023-03-22T07:28:44.833Z,78.76
2023-03-22T07:31:14.901Z,78.61
2023-03-22T07:34:00.794Z,78.68
2023-03-22T07:36:30.964Z,78.44
2023-03-22T07:38:59.033Z,78.87
2023-03-22T07:41:33.425Z,78.58
2023-03-22T07:44:20.307Z,77.55
2023-03-22T07:46:57.822Z,76.86
2023-03-22T07:49:36.105Z,76.79
2023-03-22T07:52:08.824Z,76.16
2023-03-22T07:54:36.686Z,75.95
2023-03-22T07:57:06.914Z,75.89
2023-03-22T07:59:40.016Z,76.07
2023-03-22T08:02:12.187Z,76.48
2023-03-22T08:04:45.993Z,76.40
2023-03-22T08:07:32.810Z,76.26
2023-03-22T08:10:01.499Z,75.67
2023-03-22T08:12:29.766Z,75.95
2023-03-22T08:15:05.630Z,75.81
2023-03-22T08:17:34.558Z,75.64
2023-03-22T08:20:09.076Z,75.64
2023-03-22T08:22:46.154Z,74.75
2023-03-22T08:25:21.244Z,74.96
2023-03-22T08:27:49.760Z,74.84
2023-03-22T08:30:18.396Z,74.65
2023-03-22T08:32:46.549Z,74.79
2023-03-22T08:35:14.812Z,74.77
2023-03-22T08:37:42.956Z,74.42
2023-03-22T08:40:11.914Z,74.32
2023-03-22T08:42:47.833Z,74.34
2023-03-22T08:45:16.377Z,74.10
2023-03-22T08:47:50.033Z,73.96
2023-03-22T08:50:19.233Z,74.04
2023-03-22T08:52:53.813Z,74.10
2023-03-22T08:55:35.609Z,73.86
2023-03-22T08:58:13.895Z,73.95
2023-03-22T09:00:51.071Z,73.48
2023-03-22T09:03:43.509Z,73.50
2023-03-22T09:06:11.729Z,73.71
2023-03-22T09:08:42.213Z,73.39
2023-03-22T09:11:17.806Z,73.54
2023-03-22T09:13:47.706Z,73.55
2023-03-22T09:16:17.243Z,73.21
2023-03-22T09:18:46.351Z,73.43
2023-03-22T09:21:17.863Z,73.29
2023-03-22T09:24:00.648Z,73.37
2023-03-22T09:26:37.794Z,72.92
2023-03-22T09:29:07.430Z,73.10
2023-03-22T09:31:35.432Z,73.25
2023-03-22T09:34:16.493Z,73.49
2023-03-22T09:36:44.624Z,73.79
2023-03-22T09:39:12.931Z,73.97
2023-03-22T09:41:55.006Z,73.68
2023-03-22T09:44:34.204Z,73.67
2023-03-22T09:47:05.925Z,73.52
2023-03-22T09:49:52.571Z,73.35
2023-03-22T09:52:22.082Z,73.12
2023-03-22T09:54:52.760Z,72.95
2023-03-22T09:57:37.642Z,72.89
2023-03-22T10:00:21.020Z,72.69
2023-03-22T10:03:18.614Z,72.23
2023-03-22T10:05:56.021Z,72.03
2023-03-22T10:08:50.927Z,72.24
2023-03-22T10:11:45.011Z,72.07
2023-03-22T10:14:41.993Z,72.28
2023-03-22T10:17:17.540Z,72.49
2023-03-22T10:20:01.218Z,72.59
2023-03-22T10:22:37.053Z,72.49
2023-03-22T10:25:09.933Z,72.38
2023-03-22T10:30:23.091Z,71.87
2023-03-22T10:33:16.610Z,72.10
2023-03-22T10:35:45.894Z,70.95
2023-03-22T10:38:23.733Z,70.73
2023-03-22T10:40:55.923Z,70.85
2023-03-22T10:43:31.077Z,70.78
2023-03-22T10:46:02.654Z,71.13
2023-03-22T10:48:41.029Z,70.90
2023-03-22T10:51:18.455Z,70.85
2023-03-22T10:53:49.844Z,70.39
2023-03-22T10:56:21.092Z,69.88
2023-03-22T10:58:50.625Z,70.08
2023-03-22T11:01:29.364Z,69.98
2023-03-22T11:04:12.435Z,69.86
2023-03-22T11:06:54.734Z,70.01
2023-03-22T11:09:25.362Z,70.05
2023-03-22T11:12:03.935Z,69.97
2023-03-22T11:14:38.004Z,70.18
2023-03-22T11:17:06.477Z,70.23
2023-03-22T11:19:37.938Z,70.25
2023-03-22T11:22:37.896Z,69.93
2023-03-22T11:25:30.658Z,69.64
2023-03-22T11:28:04.980Z,68.99
2023-03-22T11:30:34.559Z,68.71
2023-03-22T11:33:08.445Z,68.55
2023-03-22T11:35:38.804Z,68.46
2023-03-22T11:38:07.734Z,67.93
2023-03-22T11:40:37.234Z,67.94
2023-03-22T11:43:23.354Z,67.92
2023-03-22T11:45:56.630Z,67.74
2023-03-22T11:48:28.219Z,67.84
2023-03-22T11:51:05.839Z,67.97
2023-03-22T11:53:37.321Z,67.72
2023-03-22T11:56:07.824Z,67.43
2023-03-22T11:58:41.913Z,67.31
2023-03-22T12:01:33.083Z,66.09
2023-03-22T12:04:04.280Z,66.71
2023-03-22T12:06:36.804Z,65.99
2023-03-22T12:09:22.428Z,66.35
2023-03-22T12:11:55.128Z,66.48
2023-03-22T12:14:40.443Z,66.73
2023-03-22T12:17:17.042Z,66.62
2023-03-22T12:20:24.236Z,66.67
2023-03-22T12:22:56.035Z,66.34
2023-03-22T12:25:36.347Z,65.78
2023-03-22T12:28:11.045Z,66.71
2023-03-22T12:30:49.541Z,66.33
2023-03-22T12:33:33.139Z,65.75
2023-03-22T12:36:04.498Z,65.51
2023-03-22T12:38:46.407Z,65.53
2023-03-22T12:41:25.389Z,64.89
2023-03-22T12:44:09.709Z,65.40
2023-03-22T12:46:51.736Z,65.67
2023-03-22T12:49:26.675Z,65.61
2023-03-22T12:52:11.393Z,65.49
2023-03-22T12:54:40.897Z,65.32
2023-03-22T12:57:10.989Z,65.01
2023-03-22T12:59:44.567Z,65.09
2023-03-22T13:02:27.552Z,65.42
2023-03-22T13:05:09.669Z,64.97
2023-03-22T13:07:48.271Z,64.73
2023-03-22T13:10:41.010Z,64.66
2023-03-22T13:13:21.306Z,64.18
2023-03-22T13:16:11.345Z,64.18
2023-03-22T13:18:42.558Z,64.08
2023-03-22T13:21:27.033Z,63.35
2023-03-22T13:24:10.570Z,63.67
2023-03-22T13:26:47.681Z,63.36
2023-03-22T13:29:25.237Z,63.60
2023-03-22T13:32:01.245Z,63.17
2023-03-22T13:34:32.137Z,63.13
2023-03-22T13:37:01.851Z,63.45
2023-03-22T13:39:34.991Z,63.43
2023-03-22T13:42:08.758Z,63.30
2023-03-22T13:44:40.050Z,63.06
2023-03-22T13:47:29.696Z,62.48
2023-03-22T13:50:17.191Z,62.96
2023-03-22T13:53:00.234Z,62.80
2023-03-22T13:55:42.022Z,62.66
2023-03-22T13:58:36.352Z,62.70
2023-03-22T14:01:09.252Z,62.32
2023-03-22T14:03:42.292Z,62.26
2023-03-22T14:06:19.206Z,62.85
2023-03-22T14:08:51.917Z,63.18
2023-03-22T14:11:26.416Z,62.58
2023-03-22T14:14:01.617Z,62.77
2023-03-22T14:17:02.361Z,62.91
2023-03-22T14:19:33.431Z,63.13
